sensor_id;sensor_type;location;lat;lon;timestamp;P1;durP1;ratioP1;P2;durP2;ratioP2
21827;SDS011;11076;47.942;11.804;2023-06-05T00:03:45;6.30;;;4.45;;
21827;SDS011;11076;47.942;11.804;2023-06-05T00:08:47;7.88;;;4.95;;
21827;SDS011;11076;47.942;11.804;2023-06-05T00:13:50;6.50;;;5.10;;
21827;SDS011;11076;47.942;11.804;2023-06-05T00:18:53;7.72;;;5.18;;
21827;SDS011;11076;47.942;11.804;2023-06-05T00:23:55;8.13;;;5.28;;
21827;SDS011;11076;47.942;11.804;2023-06-05T00:28:58;13.20;;;5.95;;
21827;SDS011;11076;47.942;11.804;2023-06-05T00:34:00;9.82;;;5.28;;
21827;SDS011;11076;47.942;11.804;2023-06-05T00:39:03;7.85;;;5.45;;
21827;SDS011;11076;47.942;11.804;2023-06-05T00:44:05;8.05;;;5.50;;
21827;SDS011;11076;47.942;11.804;2023-06-05T00:49:07;12.32;;;6.30;;
21827;SDS011;11076;47.942;11.804;2023-06-05T00:54:11;8.93;;;6.53;;
21827;SDS011;11076;47.942;11.804;2023-06-05T00:59:15;8.48;;;5.63;;
21827;SDS011;11076;47.942;11.804;2023-06-05T01:04:19;8.98;;;6.28;;
21827;SDS011;11076;47.942;11.804;2023-06-05T01:09:21;6.82;;;5.32;;
21827;SDS011;11076;47.942;11.804;2023-06-05T01:14:24;8.73;;;6.03;;
21827;SDS011;11076;47.942;11.804;2023-06-05T01:19:32;9.73;;;6.13;;
21827;SDS011;11076;47.942;11.804;2023-06-05T01:24:35;7.88;;;5.75;;
21827;SDS011;11076;47.942;11.804;2023-06-05T01:29:45;10.57;;;6.22;;
21827;SDS011;11076;47.942;11.804;2023-06-05T01:35:00;9.50;;;6.60;;
21827;SDS011;11076;47.942;11.804;2023-06-05T01:40:03;11.65;;;6.68;;
21827;SDS011;11076;47.942;11.804;2023-06-05T01:45:09;9.00;;;6.53;;
21827;SDS011;11076;47.942;11.804;2023-06-05T01:50:13;9.27;;;6.43;;
21827;SDS011;11076;47.942;11.804;2023-06-05T01:55:17;10.63;;;6.47;;
21827;SDS011;11076;47.942;11.804;2023-06-05T02:00:22;8.45;;;6.57;;
21827;SDS011;11076;47.942;11.804;2023-06-05T02:05:24;11.25;;;6.57;;
21827;SDS011;11076;47.942;11.804;2023-06-05T02:10:29;7.10;;;5.85;;
21827;SDS011;11076;47.942;11.804;2023-06-05T02:15:31;7.90;;;6.32;;
21827;SDS011;11076;47.942;11.804;2023-06-05T02:20:36;8.77;;;5.30;;
21827;SDS011;11076;47.942;11.804;2023-06-05T02:25:38;8.25;;;5.50;;
21827;SDS011;11076;47.942;11.804;2023-06-05T02:30:40;6.53;;;5.63;;
21827;SDS011;11076;47.942;11.804;2023-06-05T02:35:46;15.48;;;6.15;;
21827;SDS011;11076;47.942;11.804;2023-06-05T02:40:48;7.25;;;5.97;;
21827;SDS011;11076;47.942;11.804;2023-06-05T02:45:51;10.65;;;6.68;;
21827;SDS011;11076;47.942;11.804;2023-06-05T02:50:53;21.00;;;7.00;;
21827;SDS011;11076;47.942;11.804;2023-06-05T02:55:56;8.45;;;6.32;;
21827;SDS011;11076;47.942;11.804;2023-06-05T03:01:01;9.18;;;7.18;;
21827;SDS011;11076;47.942;11.804;2023-06-05T03:06:11;9.00;;;7.53;;
21827;SDS011;11076;47.942;11.804;2023-06-05T03:11:18;10.93;;;6.75;;
21827;SDS011;11076;47.942;11.804;2023-06-05T03:16:23;9.88;;;7.55;;
21827;SDS011;11076;47.942;11.804;2023-06-05T03:21:36;10.77;;;7.53;;
21827;SDS011;11076;47.942;11.804;2023-06-05T03:26:40;13.55;;;7.97;;
21827;SDS011;11076;47.942;11.804;2023-06-05T03:31:44;10.23;;;7.45;;
21827;SDS011;11076;47.942;11.804;2023-06-05T03:36:47;10.40;;;7.93;;
21827;SDS011;11076;47.942;11.804;2023-06-05T03:41:50;10.50;;;7.93;;
21827;SDS011;11076;47.942;11.804;2023-06-05T03:46:54;14.80;;;9.02;;
21827;SDS011;11076;47.942;11.804;2023-06-05T03:51:59;10.82;;;8.55;;
21827;SDS011;11076;47.942;11.804;2023-06-05T03:57:04;15.57;;;11.02;;
21827;SDS011;11076;47.942;11.804;2023-06-05T04:02:11;12.18;;;8.88;;
21827;SDS011;11076;47.942;11.804;2023-06-05T04:07:14;10.10;;;8.57;;
21827;SDS011;11076;47.942;11.804;2023-06-05T04:12:17;16.38;;;9.20;;
21827;SDS011;11076;47.942;11.804;2023-06-05T04:17:23;15.45;;;9.20;;
21827;SDS011;11076;47.942;11.804;2023-06-05T04:22:26;12.90;;;8.57;;
21827;SDS011;11076;47.942;11.804;2023-06-05T04:27:30;13.23;;;9.35;;
21827;SDS011;11076;47.942;11.804;2023-06-05T04:32:33;17.15;;;8.10;;
21827;SDS011;11076;47.942;11.804;2023-06-05T04:37:39;16.45;;;7.97;;
21827;SDS011;11076;47.942;11.804;2023-06-05T04:42:43;11.30;;;8.38;;
21827;SDS011;11076;47.942;11.804;2023-06-05T04:47:46;11.35;;;9.00;;
21827;SDS011;11076;47.942;11.804;2023-06-05T04:52:49;13.43;;;9.88;;
21827;SDS011;11076;47.942;11.804;2023-06-05T04:57:51;14.45;;;8.35;;
21827;SDS011;11076;47.942;11.804;2023-06-05T05:02:55;20.73;;;8.70;;
21827;SDS011;11076;47.942;11.804;2023-06-05T05:07:58;15.70;;;9.68;;
21827;SDS011;11076;47.942;11.804;2023-06-05T05:13:06;11.25;;;7.60;;
21827;SDS011;11076;47.942;11.804;2023-06-05T05:18:09;11.82;;;8.48;;
21827;SDS011;11076;47.942;11.804;2023-06-05T05:23:12;11.27;;;8.10;;
21827;SDS011;11076;47.942;11.804;2023-06-05T05:28:16;15.98;;;9.10;;
21827;SDS011;11076;47.942;11.804;2023-06-05T05:33:19;12.55;;;9.77;;
21827;SDS011;11076;47.942;11.804;2023-06-05T05:38:21;16.45;;;8.80;;
21827;SDS011;11076;47.942;11.804;2023-06-05T05:43:24;14.32;;;8.82;;
21827;SDS011;11076;47.942;11.804;2023-06-05T05:48:27;17.95;;;9.30;;
21827;SDS011;11076;47.942;11.804;2023-06-05T05:53:30;11.77;;;9.32;;
21827;SDS011;11076;47.942;11.804;2023-06-05T05:58:32;11.48;;;8.73;;
21827;SDS011;11076;47.942;11.804;2023-06-05T06:03:35;15.38;;;8.80;;
21827;SDS011;11076;47.942;11.804;2023-06-05T06:08:39;13.55;;;9.13;;
21827;SDS011;11076;47.942;11.804;2023-06-05T06:13:41;15.65;;;9.05;;
21827;SDS011;11076;47.942;11.804;2023-06-05T06:18:45;11.63;;;9.30;;
21827;SDS011;11076;47.942;11.804;2023-06-05T06:23:48;11.57;;;8.93;;
21827;SDS011;11076;47.942;11.804;2023-06-05T06:28:52;16.38;;;8.93;;
21827;SDS011;11076;47.942;11.804;2023-06-05T06:33:56;11.77;;;9.45;;
21827;SDS011;11076;47.942;11.804;2023-06-05T06:38:58;11.05;;;9.30;;
21827;SDS011;11076;47.942;11.804;2023-06-05T06:44:01;12.30;;;9.43;;
21827;SDS011;11076;47.942;11.804;2023-06-05T06:49:06;12.57;;;9.05;;
21827;SDS011;11076;47.942;11.804;2023-06-05T06:54:08;14.82;;;8.95;;
21827;SDS011;11076;47.942;11.804;2023-06-05T06:59:11;11.23;;;9.18;;
21827;SDS011;11076;47.942;11.804;2023-06-05T07:04:15;19.98;;;9.75;;
21827;SDS011;11076;47.942;11.804;2023-06-05T07:09:22;14.30;;;9.25;;
21827;SDS011;11076;47.942;11.804;2023-06-05T07:14:25;11.02;;;8.57;;
21827;SDS011;11076;47.942;11.804;2023-06-05T07:19:30;13.63;;;9.73;;
21827;SDS011;11076;47.942;11.804;2023-06-05T07:24:34;11.70;;;9.23;;
21827;SDS011;11076;47.942;11.804;2023-06-05T07:29:37;11.73;;;8.65;;
21827;SDS011;11076;47.942;11.804;2023-06-05T07:34:39;12.52;;;9.43;;
21827;SDS011;11076;47.942;11.804;2023-06-05T07:39:42;11.95;;;8.10;;
21827;SDS011;11076;47.942;11.804;2023-06-05T07:44:45;9.70;;;8.70;;
21827;SDS011;11076;47.942;11.804;2023-06-05T07:50:00;10.88;;;8.07;;
21827;SDS011;11076;47.942;11.804;2023-06-05T07:55:05;12.73;;;8.77;;
21827;SDS011;11076;47.942;11.804;2023-06-05T08:00:09;16.40;;;9.50;;
21827;SDS011;11076;47.942;11.804;2023-06-05T08:05:15;13.13;;;9.27;;
21827;SDS011;11076;47.942;11.804;2023-06-05T08:10:19;16.02;;;8.30;;
21827;SDS011;11076;47.942;11.804;2023-06-05T08:15:22;11.43;;;8.00;;
21827;SDS011;11076;47.942;11.804;2023-06-05T08:20:24;9.98;;;8.00;;
21827;SDS011;11076;47.942;11.804;2023-06-05T08:25:27;11.27;;;8.95;;
21827;SDS011;11076;47.942;11.804;2023-06-05T08:30:29;12.50;;;8.13;;
21827;SDS011;11076;47.942;11.804;2023-06-05T08:35:32;10.93;;;8.48;;
21827;SDS011;11076;47.942;11.804;2023-06-05T08:40:34;9.13;;;8.15;;
21827;SDS011;11076;47.942;11.804;2023-06-05T08:45:38;11.32;;;8.50;;
21827;SDS011;11076;47.942;11.804;2023-06-05T08:50:41;14.23;;;8.27;;
21827;SDS011;11076;47.942;11.804;2023-06-05T08:55:45;11.98;;;8.60;;
21827;SDS011;11076;47.942;11.804;2023-06-05T09:00:53;9.52;;;8.30;;
21827;SDS011;11076;47.942;11.804;2023-06-05T09:05:56;10.90;;;7.95;;
21827;SDS011;11076;47.942;11.804;2023-06-05T09:21:46;10.52;;;8.55;;
21827;SDS011;11076;47.942;11.804;2023-06-05T09:26:55;11.80;;;7.90;;
21827;SDS011;11076;47.942;11.804;2023-06-05T09:32:01;10.00;;;7.30;;
21827;SDS011;11076;47.942;11.804;2023-06-05T09:37:05;8.00;;;6.88;;
21827;SDS011;11076;47.942;11.804;2023-06-05T09:42:09;12.35;;;7.40;;
21827;SDS011;11076;47.942;11.804;2023-06-05T09:47:11;9.73;;;7.43;;
21827;SDS011;11076;47.942;11.804;2023-06-05T09:52:15;9.27;;;7.22;;
21827;SDS011;11076;47.942;11.804;2023-06-05T09:57:18;8.48;;;6.93;;
21827;SDS011;11076;47.942;11.804;2023-06-05T10:02:23;9.57;;;7.20;;
21827;SDS011;11076;47.942;11.804;2023-06-05T10:07:27;9.27;;;7.03;;
21827;SDS011;11076;47.942;11.804;2023-06-05T10:12:32;9.70;;;6.22;;
21827;SDS011;11076;47.942;11.804;2023-06-05T10:17:36;9.30;;;6.93;;
21827;SDS011;11076;47.942;11.804;2023-06-05T10:22:41;12.35;;;8.23;;
21827;SDS011;11076;47.942;11.804;2023-06-05T10:33:31;7.40;;;6.60;;
21827;SDS011;11076;47.942;11.804;2023-06-05T10:38:48;8.38;;;7.50;;
21827;SDS011;11076;47.942;11.804;2023-06-05T10:43:52;8.02;;;7.22;;
21827;SDS011;11076;47.942;11.804;2023-06-05T10:59:39;11.23;;;7.93;;
21827;SDS011;11076;47.942;11.804;2023-06-05T11:15:14;8.35;;;6.95;;
21827;SDS011;11076;47.942;11.804;2023-06-05T11:25:38;10.00;;;7.93;;
21827;SDS011;11076;47.942;11.804;2023-06-05T11:30:42;12.60;;;7.30;;
21827;SDS011;11076;47.942;11.804;2023-06-05T11:35:49;8.13;;;6.10;;
21827;SDS011;11076;47.942;11.804;2023-06-05T11:40:53;7.53;;;6.32;;
21827;SDS011;11076;47.942;11.804;2023-06-05T11:45:57;14.77;;;7.90;;
21827;SDS011;11076;47.942;11.804;2023-06-05T11:51:04;8.07;;;6.93;;
21827;SDS011;11076;47.942;11.804;2023-06-05T11:56:13;8.43;;;7.30;;
21827;SDS011;11076;47.942;11.804;2023-06-05T12:01:19;9.45;;;7.72;;
21827;SDS011;11076;47.942;11.804;2023-06-05T12:06:27;9.77;;;7.22;;
21827;SDS011;11076;47.942;11.804;2023-06-05T12:11:30;8.30;;;7.40;;
21827;SDS011;11076;47.942;11.804;2023-06-05T12:16:33;9.52;;;6.78;;
21827;SDS011;11076;47.942;11.804;2023-06-05T12:21:37;8.13;;;5.32;;
21827;SDS011;11076;47.942;11.804;2023-06-05T12:26:53;6.20;;;5.30;;
21827;SDS011;11076;47.942;11.804;2023-06-05T12:31:57;7.80;;;4.70;;
21827;SDS011;11076;47.942;11.804;2023-06-05T12:37:00;9.55;;;5.38;;
21827;SDS011;11076;47.942;11.804;2023-06-05T12:42:03;7.50;;;5.07;;
21827;SDS011;11076;47.942;11.804;2023-06-05T12:47:05;5.32;;;4.82;;
21827;SDS011;11076;47.942;11.804;2023-06-05T12:52:08;13.00;;;4.05;;
21827;SDS011;11076;47.942;11.804;2023-06-05T12:57:11;4.35;;;3.95;;
21827;SDS011;11076;47.942;11.804;2023-06-05T13:02:14;8.65;;;4.28;;
21827;SDS011;11076;47.942;11.804;2023-06-05T13:07:16;7.50;;;3.75;;
21827;SDS011;11076;47.942;11.804;2023-06-05T13:12:19;5.82;;;4.60;;
21827;SDS011;11076;47.942;11.804;2023-06-05T13:17:21;7.05;;;5.43;;
21827;SDS011;11076;47.942;11.804;2023-06-05T13:22:25;10.40;;;6.10;;
21827;SDS011;11076;47.942;11.804;2023-06-05T13:27:27;10.57;;;6.47;;
21827;SDS011;11076;47.942;11.804;2023-06-05T13:32:30;8.02;;;6.22;;
21827;SDS011;11076;47.942;11.804;2023-06-05T13:37:34;8.15;;;6.75;;
21827;SDS011;11076;47.942;11.804;2023-06-05T13:42:36;9.10;;;7.50;;
21827;SDS011;11076;47.942;11.804;2023-06-05T13:47:38;9.13;;;7.38;;
21827;SDS011;11076;47.942;11.804;2023-06-05T13:52:41;10.18;;;7.40;;
21827;SDS011;11076;47.942;11.804;2023-06-05T13:57:43;9.45;;;6.63;;
21827;SDS011;11076;47.942;11.804;2023-06-05T14:02:46;11.43;;;7.40;;
21827;SDS011;11076;47.942;11.804;2023-06-05T14:07:49;9.60;;;7.95;;
21827;SDS011;11076;47.942;11.804;2023-06-05T14:12:53;9.73;;;8.43;;
21827;SDS011;11076;47.942;11.804;2023-06-05T14:17:55;11.68;;;8.43;;
21827;SDS011;11076;47.942;11.804;2023-06-05T14:22:58;14.48;;;8.68;;
21827;SDS011;11076;47.942;11.804;2023-06-05T14:28:01;11.40;;;9.13;;
21827;SDS011;11076;47.942;11.804;2023-06-05T14:33:03;12.60;;;9.70;;
21827;SDS011;11076;47.942;11.804;2023-06-05T14:38:06;11.25;;;10.15;;
21827;SDS011;11076;47.942;11.804;2023-06-05T14:43:08;13.77;;;10.60;;
21827;SDS011;11076;47.942;11.804;2023-06-05T14:48:11;12.80;;;10.23;;
21827;SDS011;11076;47.942;11.804;2023-06-05T14:53:13;15.77;;;10.98;;
21827;SDS011;11076;47.942;11.804;2023-06-05T14:58:16;14.43;;;10.48;;
21827;SDS011;11076;47.942;11.804;2023-06-05T15:03:19;15.05;;;11.18;;
21827;SDS011;11076;47.942;11.804;2023-06-05T15:08:21;12.70;;;11.20;;
21827;SDS011;11076;47.942;11.804;2023-06-05T15:13:24;19.25;;;12.13;;
21827;SDS011;11076;47.942;11.804;2023-06-05T15:18:26;17.02;;;12.98;;
21827;SDS011;11076;47.942;11.804;2023-06-05T15:23:29;15.25;;;13.60;;
21827;SDS011;11076;47.942;11.804;2023-06-05T15:28:31;16.92;;;13.25;;
21827;SDS011;11076;47.942;11.804;2023-06-05T15:33:34;15.40;;;12.45;;
21827;SDS011;11076;47.942;11.804;2023-06-05T15:38:36;14.65;;;13.23;;
21827;SDS011;11076;47.942;11.804;2023-06-05T15:43:39;14.75;;;13.25;;
21827;SDS011;11076;47.942;11.804;2023-06-05T15:48:41;14.07;;;12.18;;
21827;SDS011;11076;47.942;11.804;2023-06-05T15:53:44;19.33;;;14.35;;
21827;SDS011;11076;47.942;11.804;2023-06-05T15:58:55;14.40;;;12.93;;
21827;SDS011;11076;47.942;11.804;2023-06-05T16:03:58;13.77;;;12.32;;
21827;SDS011;11076;47.942;11.804;2023-06-05T16:09:00;15.20;;;12.20;;
21827;SDS011;11076;47.942;11.804;2023-06-05T16:14:02;14.82;;;13.27;;
21827;SDS011;11076;47.942;11.804;2023-06-05T16:19:05;14.43;;;13.02;;
21827;SDS011;11076;47.942;11.804;2023-06-05T16:24:08;15.30;;;13.68;;
21827;SDS011;11076;47.942;11.804;2023-06-05T16:29:10;13.65;;;12.35;;
21827;SDS011;11076;47.942;11.804;2023-06-05T16:34:13;15.68;;;13.35;;
21827;SDS011;11076;47.942;11.804;2023-06-05T16:39:15;17.02;;;13.50;;
21827;SDS011;11076;47.942;11.804;2023-06-05T16:44:19;19.60;;;14.55;;
21827;SDS011;11076;47.942;11.804;2023-06-05T16:49:21;16.77;;;14.68;;
21827;SDS011;11076;47.942;11.804;2023-06-05T16:54:24;16.88;;;14.07;;
21827;SDS011;11076;47.942;11.804;2023-06-05T16:59:26;15.57;;;13.50;;
21827;SDS011;11076;47.942;11.804;2023-06-05T17:04:29;16.92;;;13.90;;
21827;SDS011;11076;47.942;11.804;2023-06-05T17:09:32;17.15;;;12.88;;
21827;SDS011;11076;47.942;11.804;2023-06-05T17:14:34;16.52;;;14.70;;
21827;SDS011;11076;47.942;11.804;2023-06-05T17:19:37;16.13;;;14.40;;
21827;SDS011;11076;47.942;11.804;2023-06-05T17:24:39;17.67;;;14.38;;
21827;SDS011;11076;47.942;11.804;2023-06-05T17:29:42;17.10;;;14.00;;
21827;SDS011;11076;47.942;11.804;2023-06-05T17:34:44;15.10;;;12.85;;
21827;SDS011;11076;47.942;11.804;2023-06-05T17:39:47;14.95;;;12.18;;
21827;SDS011;11076;47.942;11.804;2023-06-05T17:44:49;14.45;;;11.35;;
21827;SDS011;11076;47.942;11.804;2023-06-05T17:49:51;12.80;;;11.45;;
21827;SDS011;11076;47.942;11.804;2023-06-05T17:54:54;13.13;;;11.02;;
21827;SDS011;11076;47.942;11.804;2023-06-05T17:59:56;12.30;;;10.05;;
21827;SDS011;11076;47.942;11.804;2023-06-05T18:04:59;11.48;;;10.35;;
21827;SDS011;11076;47.942;11.804;2023-06-05T18:10:02;15.20;;;10.05;;
21827;SDS011;11076;47.942;11.804;2023-06-05T18:15:05;15.55;;;11.32;;
21827;SDS011;11076;47.942;11.804;2023-06-05T18:20:09;11.63;;;9.75;;
21827;SDS011;11076;47.942;11.804;2023-06-05T18:25:12;11.48;;;10.27;;
21827;SDS011;11076;47.942;11.804;2023-06-05T18:30:15;13.02;;;11.25;;
21827;SDS011;11076;47.942;11.804;2023-06-05T18:35:18;12.30;;;10.57;;
21827;SDS011;11076;47.942;11.804;2023-06-05T18:40:22;13.38;;;9.65;;
21827;SDS011;11076;47.942;11.804;2023-06-05T18:45:25;10.30;;;9.00;;
21827;SDS011;11076;47.942;11.804;2023-06-05T18:50:28;14.95;;;9.35;;
21827;SDS011;11076;47.942;11.804;2023-06-05T18:55:30;12.95;;;9.85;;
21827;SDS011;11076;47.942;11.804;2023-06-05T19:00:33;12.07;;;10.80;;
21827;SDS011;11076;47.942;11.804;2023-06-05T19:05:35;12.43;;;10.25;;
21827;SDS011;11076;47.942;11.804;2023-06-05T19:10:38;11.85;;;9.90;;
21827;SDS011;11076;47.942;11.804;2023-06-05T19:15:40;14.20;;;10.27;;
21827;SDS011;11076;47.942;11.804;2023-06-05T19:20:44;12.45;;;10.27;;
21827;SDS011;11076;47.942;11.804;2023-06-05T19:25:46;10.35;;;9.25;;
21827;SDS011;11076;47.942;11.804;2023-06-05T19:30:50;9.85;;;8.50;;
21827;SDS011;11076;47.942;11.804;2023-06-05T19:35:53;10.90;;;9.13;;
21827;SDS011;11076;47.942;11.804;2023-06-05T19:40:55;10.35;;;8.18;;
21827;SDS011;11076;47.942;11.804;2023-06-05T19:45:59;8.93;;;7.72;;
21827;SDS011;11076;47.942;11.804;2023-06-05T19:51:02;9.27;;;8.30;;
21827;SDS011;11076;47.942;11.804;2023-06-05T19:56:05;8.82;;;7.70;;
21827;SDS011;11076;47.942;11.804;2023-06-05T20:01:07;8.90;;;7.97;;
21827;SDS011;11076;47.942;11.804;2023-06-05T20:06:10;10.88;;;8.63;;
21827;SDS011;11076;47.942;11.804;2023-06-05T20:11:13;11.00;;;8.77;;
21827;SDS011;11076;47.942;11.804;2023-06-05T20:16:15;9.60;;;8.60;;
21827;SDS011;11076;47.942;11.804;2023-06-05T20:21:17;9.38;;;8.27;;
21827;SDS011;11076;47.942;11.804;2023-06-05T20:26:20;11.32;;;8.73;;
21827;SDS011;11076;47.942;11.804;2023-06-05T20:31:23;14.00;;;8.43;;
21827;SDS011;11076;47.942;11.804;2023-06-05T20:36:26;9.82;;;7.95;;
21827;SDS011;11076;47.942;11.804;2023-06-05T20:41:32;9.07;;;8.18;;
21827;SDS011;11076;47.942;11.804;2023-06-05T20:46:34;10.73;;;7.32;;
21827;SDS011;11076;47.942;11.804;2023-06-05T20:51:40;11.85;;;8.60;;
21827;SDS011;11076;47.942;11.804;2023-06-05T20:56:43;10.07;;;8.10;;
21827;SDS011;11076;47.942;11.804;2023-06-05T21:01:47;8.38;;;7.35;;
21827;SDS011;11076;47.942;11.804;2023-06-05T21:06:49;9.30;;;8.30;;
21827;SDS011;11076;47.942;11.804;2023-06-05T21:11:51;11.90;;;9.60;;
21827;SDS011;11076;47.942;11.804;2023-06-05T21:16:54;12.18;;;9.55;;
21827;SDS011;11076;47.942;11.804;2023-06-05T21:21:56;11.73;;;9.15;;
21827;SDS011;11076;47.942;11.804;2023-06-05T21:26:59;10.63;;;9.05;;
21827;SDS011;11076;47.942;11.804;2023-06-05T21:32:01;10.75;;;9.02;;
21827;SDS011;11076;47.942;11.804;2023-06-05T21:37:04;9.77;;;8.75;;
21827;SDS011;11076;47.942;11.804;2023-06-05T21:42:07;12.02;;;10.13;;
21827;SDS011;11076;47.942;11.804;2023-06-05T21:47:16;14.10;;;10.43;;
21827;SDS011;11076;47.942;11.804;2023-06-05T21:52:19;14.25;;;12.40;;
21827;SDS011;11076;47.942;11.804;2023-06-05T21:57:22;13.27;;;11.30;;
21827;SDS011;11076;47.942;11.804;2023-06-05T22:02:24;16.85;;;13.32;;
21827;SDS011;11076;47.942;11.804;2023-06-05T22:07:26;19.83;;;13.77;;
21827;SDS011;11076;47.942;11.804;2023-06-05T22:12:37;17.02;;;13.10;;
21827;SDS011;11076;47.942;11.804;2023-06-05T22:17:41;14.63;;;12.18;;
21827;SDS011;11076;47.942;11.804;2023-06-05T22:22:48;16.77;;;13.50;;
21827;SDS011;11076;47.942;11.804;2023-06-05T22:27:50;15.70;;;13.35;;
21827;SDS011;11076;47.942;11.804;2023-06-05T22:32:53;18.52;;;13.60;;
21827;SDS011;11076;47.942;11.804;2023-06-05T22:37:55;15.98;;;12.07;;
21827;SDS011;11076;47.942;11.804;2023-06-05T22:42:58;17.75;;;13.52;;
21827;SDS011;11076;47.942;11.804;2023-06-05T22:48:00;19.10;;;13.00;;
21827;SDS011;11076;47.942;11.804;2023-06-05T22:53:03;19.48;;;13.60;;
21827;SDS011;11076;47.942;11.804;2023-06-05T22:58:07;19.27;;;14.05;;
21827;SDS011;11076;47.942;11.804;2023-06-05T23:03:11;19.55;;;14.35;;
21827;SDS011;11076;47.942;11.804;2023-06-05T23:08:16;24.20;;;15.85;;
21827;SDS011;11076;47.942;11.804;2023-06-05T23:13:19;21.50;;;15.05;;
21827;SDS011;11076;47.942;11.804;2023-06-05T23:18:23;18.63;;;14.80;;
21827;SDS011;11076;47.942;11.804;2023-06-05T23:23:25;20.35;;;14.27;;
21827;SDS011;11076;47.942;11.804;2023-06-05T23:28:28;22.92;;;16.00;;
21827;SDS011;11076;47.942;11.804;2023-06-05T23:33:30;21.08;;;17.20;;
21827;SDS011;11076;47.942;11.804;2023-06-05T23:38:33;23.70;;;16.52;;
21827;SDS011;11076;47.942;11.804;2023-06-05T23:43:35;20.15;;;15.23;;
21827;SDS011;11076;47.942;11.804;2023-06-05T23:48:38;18.95;;;14.95;;
21827;SDS011;11076;47.942;11.804;2023-06-05T23:53:41;25.17;;;17.27;;
21827;SDS011;11076;47.942;11.804;2023-06-05T23:58:43;29.80;;;19.33;;
